createdAt,value
2022-09-02T00:01:25.742Z,100391.69
2022-09-02T00:03:59.426Z,100374.41
2022-09-02T00:06:28.775Z,100393.19
2022-09-02T00:08:57.633Z,100391.13
2022-09-02T00:11:29.377Z,100391.88
2022-09-02T00:13:59.113Z,100402.22
2022-09-02T00:16:27.780Z,100400.44
2022-09-02T00:18:57.845Z,100409.78
2022-09-02T00:21:27.388Z,100381.22
2022-09-02T00:23:56.465Z,100368.00
2022-09-02T00:26:25.510Z,100404.69
2022-09-02T00:28:56.181Z,100389.19
2022-09-02T00:31:28.170Z,100397.31
2022-09-02T00:33:57.357Z,100392.88
2022-09-02T00:36:26.487Z,100403.44
2022-09-02T00:38:55.392Z,100422.97
2022-09-02T00:41:27.629Z,100465.66
2022-09-02T00:44:00.447Z,100457.25
2022-09-02T00:46:30.792Z,100458.69
2022-09-02T00:49:09.255Z,100475.81
2022-09-02T00:51:47.069Z,100470.47
2022-09-02T00:54:17.554Z,100474.09
2022-09-02T00:56:47.758Z,100469.38
2022-09-02T00:59:25.101Z,100482.72
2022-09-02T01:01:53.734Z,100475.41
2022-09-02T01:04:22.749Z,100489.69
2022-09-02T01:06:52.972Z,100496.53
2022-09-02T01:09:22.231Z,100489.69
2022-09-02T01:11:54.302Z,100497.19
2022-09-02T01:14:28.518Z,100486.72
2022-09-02T01:17:00.913Z,100505.94
2022-09-02T01:19:36.468Z,100514.69
2022-09-02T01:22:16.694Z,100525.16
2022-09-02T01:24:45.582Z,100491.00
2022-09-02T01:27:20.624Z,100484.94
2022-09-02T01:29:54.694Z,100490.59
2022-09-02T01:32:24.772Z,100505.75
2022-09-02T01:34:53.617Z,100483.47
2022-09-02T01:37:23.572Z,100498.19
2022-09-02T01:39:53.191Z,100521.44
2022-09-02T01:42:22.899Z,100505.03
2022-09-02T01:44:52.061Z,100520.59
2022-09-02T01:47:26.309Z,100520.69
2022-09-02T01:49:55.820Z,100494.56
2022-09-02T01:52:26.787Z,100518.56
2022-09-02T01:54:56.134Z,100495.31
2022-09-02T01:57:25.569Z,100500.31
2022-09-02T01:59:55.314Z,100502.97
2022-09-02T02:02:24.777Z,100492.09
2022-09-02T02:04:55.555Z,100434.28
2022-09-02T02:07:25.604Z,100444.53
2022-09-02T02:09:54.386Z,100476.53
2022-09-02T02:12:23.005Z,100475.56
2022-09-02T02:14:51.865Z,100448.13
2022-09-02T02:17:25.157Z,100451.56
2022-09-02T02:19:53.754Z,100449.22
2022-09-02T02:22:22.649Z,100426.47
2022-09-02T02:24:51.209Z,100425.84
2022-09-02T02:27:19.855Z,100417.72
2022-09-02T02:29:51.482Z,100429.53
2022-09-02T02:32:24.327Z,100426.53
2022-09-02T02:34:54.976Z,100432.06
2022-09-02T02:37:25.625Z,100435.06
2022-09-02T02:39:55.597Z,100415.63
2022-09-02T02:42:24.776Z,100417.97
2022-09-02T02:44:53.401Z,100411.56
2022-09-02T02:47:22.956Z,100409.41
2022-09-02T02:49:51.787Z,100410.03
2022-09-02T02:52:20.496Z,100413.22
2022-09-02T02:54:49.693Z,100419.63
2022-09-02T02:57:18.416Z,100421.22
2022-09-02T02:59:47.100Z,100394.00
2022-09-02T03:02:15.868Z,100414.75
2022-09-02T03:04:44.668Z,100372.94
2022-09-02T03:07:13.239Z,100412.28
2022-09-02T03:09:43.903Z,100425.44
2022-09-02T03:12:12.570Z,100455.47
2022-09-02T03:14:41.349Z,100448.03
2022-09-02T03:17:10.921Z,100452.00
2022-09-02T03:19:39.611Z,100435.94
2022-09-02T03:22:08.144Z,100446.00
2022-09-02T03:24:38.614Z,100466.97
2022-09-02T03:27:10.555Z,100457.25
2022-09-02T03:29:40.311Z,100464.47
2022-09-02T03:32:09.476Z,100462.53
2022-09-02T03:34:42.333Z,100455.47
2022-09-02T03:37:13.888Z,100452.41
2022-09-02T03:39:42.863Z,100472.91
2022-09-02T03:42:19.351Z,100459.03
2022-09-02T03:44:51.397Z,100465.03
2022-09-02T03:47:20.821Z,100466.50
2022-09-02T03:49:55.185Z,100496.97
2022-09-02T03:52:25.531Z,100482.75
2022-09-02T03:54:54.595Z,100486.88
2022-09-02T03:57:26.367Z,100498.41
2022-09-02T03:59:58.035Z,100497.44
2022-09-02T04:02:26.825Z,100493.34
2022-09-02T04:04:55.568Z,100506.47
2022-09-02T04:07:24.051Z,100517.09
2022-09-02T04:09:53.814Z,100498.91
2022-09-02T04:12:22.447Z,100522.53
2022-09-02T04:14:51.967Z,100499.41
2022-09-02T04:17:26.655Z,100520.72
2022-09-02T04:19:58.377Z,100520.63
2022-09-02T04:22:27.436Z,100510.88
2022-09-02T04:24:55.974Z,100501.25
2022-09-02T04:27:25.019Z,100517.19
2022-09-02T04:29:54.627Z,100520.22
2022-09-02T04:32:23.773Z,100525.09
2022-09-02T04:34:52.445Z,100494.91
2022-09-02T04:37:22.124Z,100537.25
2022-09-02T04:39:50.795Z,100496.25
2022-09-02T04:42:19.714Z,100532.25
2022-09-02T04:44:48.955Z,100552.00
2022-09-02T04:47:19.576Z,100542.84
2022-09-02T04:49:48.152Z,100525.47
2022-09-02T04:52:17.158Z,100553.94
2022-09-02T04:54:47.127Z,100548.00
2022-09-02T04:57:16.492Z,100549.56
2022-09-02T04:59:46.333Z,100547.50
2022-09-02T05:02:16.241Z,100552.72
2022-09-02T05:04:45.174Z,100546.44
2022-09-02T05:07:23.895Z,100542.13
2022-09-02T05:09:58.163Z,100560.66
2022-09-02T05:12:28.888Z,100553.66
2022-09-02T05:15:01.938Z,100551.97
2022-09-02T05:17:37.145Z,100548.22
2022-09-02T05:20:09.123Z,100549.50
2022-09-02T05:22:39.269Z,100504.03
2022-09-02T05:25:10.380Z,100526.22
2022-09-02T05:27:39.667Z,100536.97
2022-09-02T05:30:10.216Z,100535.84
2022-09-02T05:32:40.258Z,100560.56
2022-09-02T05:35:10.286Z,100505.34
2022-09-02T05:37:39.171Z,100499.88
2022-09-02T05:40:09.805Z,100534.22
2022-09-02T05:42:44.468Z,100556.59
2022-09-02T05:45:16.634Z,100544.84
2022-09-02T05:47:46.448Z,100547.72
2022-09-02T05:50:15.655Z,100549.56
2022-09-02T05:52:47.984Z,100531.75
2022-09-02T05:55:17.001Z,100533.13
2022-09-02T05:57:46.988Z,100528.34
2022-09-02T06:00:17.872Z,100524.34
2022-09-02T06:02:58.219Z,100541.91
2022-09-02T06:05:35.028Z,100526.63
2022-09-02T06:08:16.847Z,100535.69
2022-09-02T06:10:45.621Z,100520.09
2022-09-02T06:13:22.469Z,100509.34
2022-09-02T06:15:54.126Z,100515.28
2022-09-02T06:18:26.699Z,100521.66
2022-09-02T06:20:57.227Z,100510.47
2022-09-02T06:23:31.540Z,100515.34
2022-09-02T06:26:03.282Z,100516.63
2022-09-02T06:28:32.655Z,100525.91
2022-09-02T06:31:07.532Z,100500.50
2022-09-02T06:33:35.850Z,100527.63
2022-09-02T06:36:09.204Z,100503.09
2022-09-02T06:38:45.846Z,100502.19
2022-09-02T06:41:18.172Z,100486.25
2022-09-02T06:43:47.764Z,100512.97
2022-09-02T06:46:26.292Z,100512.00
2022-09-02T06:49:00.395Z,100489.88
2022-09-02T06:51:36.343Z,100491.22
2022-09-02T06:54:08.018Z,100521.03
2022-09-02T06:56:38.745Z,100480.56
2022-09-02T06:59:09.193Z,100466.72
2022-09-02T07:01:43.944Z,100499.53
2022-09-02T07:04:35.165Z,100486.88
2022-09-02T07:07:07.162Z,100492.97
2022-09-02T07:09:41.943Z,100497.03
2022-09-02T07:12:18.090Z,100409.13
2022-09-02T07:14:57.729Z,100490.41
2022-09-02T07:17:32.594Z,100499.28
2022-09-02T07:20:06.534Z,100485.19
2022-09-02T07:22:45.784Z,100494.72
2022-09-02T07:25:18.731Z,100497.69
2022-09-02T07:27:52.025Z,100479.03
2022-09-02T07:30:21.358Z,100496.56
2022-09-02T07:32:54.531Z,100484.84
2022-09-02T07:35:25.279Z,100471.59
2022-09-02T07:37:54.295Z,100486.34
2022-09-02T07:40:24.082Z,100479.59
2022-09-02T07:42:53.518Z,100493.41
2022-09-02T07:45:23.658Z,100473.88
2022-09-02T07:47:52.517Z,100464.56
2022-09-02T07:50:22.084Z,100473.31
2022-09-02T07:52:59.874Z,100469.84
2022-09-02T07:55:32.213Z,100486.69
2022-09-02T07:58:01.509Z,100474.00
2022-09-02T08:00:30.713Z,100455.31
2022-09-02T08:05:40.861Z,100463.69
2022-09-02T08:08:10.101Z,100439.03
2022-09-02T08:10:39.293Z,100452.78
2022-09-02T08:13:11.307Z,100461.97
2022-09-02T08:15:42.539Z,100450.81
2022-09-02T08:18:21.118Z,100462.69
2022-09-02T08:20:52.108Z,100448.13
2022-09-02T08:23:36.625Z,100450.81
2022-09-02T08:26:07.213Z,100448.47
2022-09-02T08:28:36.028Z,100459.31
2022-09-02T08:31:08.575Z,100449.81
2022-09-02T08:33:37.321Z,100439.53
2022-09-02T08:36:12.718Z,100465.38
2022-09-02T08:38:42.375Z,100444.75
2022-09-02T08:41:56.215Z,100467.25
2022-09-02T08:44:26.100Z,100444.59
2022-09-02T08:47:01.773Z,100452.19
2022-09-02T08:49:39.932Z,100447.13
2022-09-02T08:52:08.731Z,100455.38
2022-09-02T08:54:54.218Z,100448.16
2022-09-02T08:57:28.353Z,100448.97
2022-09-02T08:59:59.198Z,100457.94
2022-09-02T09:02:36.977Z,100462.81
2022-09-02T09:05:44.851Z,100461.31
2022-09-02T09:08:42.751Z,100449.94
2022-09-02T09:11:34.221Z,100445.81
2022-09-02T09:14:26.358Z,100453.25
2022-09-02T09:17:00.928Z,100451.09
2022-09-02T09:19:56.654Z,100441.63
2022-09-02T09:22:40.468Z,100428.75
2022-09-02T09:25:16.549Z,100441.69
2022-09-02T09:27:48.552Z,100431.34
2022-09-02T09:30:17.239Z,100443.28
2022-09-02T09:32:54.887Z,100436.31
2022-09-02T09:35:24.462Z,100417.50
2022-09-02T09:37:54.770Z,100442.78
2022-09-02T09:40:31.214Z,100460.69
2022-09-02T09:43:15.620Z,100457.16
2022-09-02T09:45:49.927Z,100437.88
2022-09-02T09:48:19.219Z,100450.00
2022-09-02T09:50:50.368Z,100443.28
2022-09-02T09:53:25.756Z,100424.75
2022-09-02T09:56:02.469Z,100431.03
2022-09-02T09:58:46.302Z,100442.19
2022-09-02T10:01:33.356Z,100456.38
2022-09-02T10:04:41.696Z,100437.47
2022-09-02T10:07:13.856Z,100455.44
2022-09-02T10:09:43.308Z,100448.72
2022-09-02T10:12:14.235Z,100452.97
2022-09-02T10:14:49.823Z,100472.09
2022-09-02T10:17:55.210Z,100468.06
2022-09-02T10:20:24.083Z,100474.66
2022-09-02T10:23:22.535Z,100470.25
2022-09-02T10:26:12.786Z,100462.66
2022-09-02T10:29:22.714Z,100461.94
2022-09-02T10:32:18.194Z,100464.59
2022-09-02T10:34:52.623Z,100471.50
2022-09-02T10:37:24.315Z,100464.72
2022-09-02T10:40:15.096Z,100461.13
2022-09-02T10:43:19.583Z,100459.56
2022-09-02T10:45:51.784Z,100454.28
2022-09-02T10:48:38.257Z,100460.41
2022-09-02T10:51:34.200Z,100460.78
2022-09-02T10:54:25.882Z,100462.94
2022-09-02T10:57:05.744Z,100449.94
2022-09-02T10:59:59.633Z,100450.13
2022-09-02T11:02:34.125Z,100451.25
2022-09-02T11:05:14.975Z,100452.59
2022-09-02T11:07:57.165Z,100461.03
2022-09-02T11:10:46.515Z,100430.97
2022-09-02T11:13:31.007Z,100437.03
2022-09-02T11:16:06.440Z,100457.28
2022-09-02T11:18:53.824Z,100460.19
2022-09-02T11:21:31.753Z,100446.09
2022-09-02T11:24:21.034Z,100438.66
2022-09-02T11:27:32.232Z,100455.91
2022-09-02T11:30:17.997Z,100445.19
2022-09-02T11:33:22.231Z,100438.56
2022-09-02T11:35:51.700Z,100437.72
2022-09-02T11:38:23.145Z,100439.22
2022-09-02T11:43:51.443Z,100436.03
2022-09-02T11:46:42.683Z,100424.09
2022-09-02T11:49:34.755Z,100415.81
2022-09-02T11:52:30.229Z,100408.94
2022-09-02T11:55:17.567Z,100425.19
2022-09-02T11:57:54.691Z,100406.63
2022-09-02T12:00:37.694Z,100418.50
2022-09-02T12:03:28.482Z,100421.22
2022-09-02T12:06:14.156Z,100415.47
2022-09-02T12:08:43.849Z,100407.84
2022-09-02T12:11:42.547Z,100407.16
2022-09-02T12:14:31.780Z,100412.75
2022-09-02T12:17:07.387Z,100399.94
2022-09-02T12:19:46.957Z,100410.25
2022-09-02T12:22:19.701Z,100400.44
2022-09-02T12:24:59.802Z,100400.44
2022-09-02T12:27:35.929Z,100398.94
2022-09-02T12:30:08.582Z,100392.84
2022-09-02T12:32:51.917Z,100403.69
2022-09-02T12:35:40.977Z,100393.75
2022-09-02T12:38:12.821Z,100397.63
2022-09-02T12:40:59.737Z,100389.22
2022-09-02T12:43:48.067Z,100394.81
2022-09-02T12:46:57.161Z,100398.72
2022-09-02T12:49:57.909Z,100396.19
2022-09-02T12:52:41.644Z,100396.69
2022-09-02T12:55:24.840Z,100394.81
2022-09-02T12:58:07.283Z,100392.81
2022-09-02T13:00:48.245Z,100385.91
2022-09-02T13:03:42.805Z,100405.84
2022-09-02T13:06:36.039Z,100396.03
2022-09-02T13:09:35.224Z,100399.41
2022-09-02T13:13:11.436Z,100395.03
2022-09-02T13:15:39.951Z,100384.19
2022-09-02T13:18:44.903Z,100393.81
2022-09-02T13:21:41.778Z,100389.91
2022-09-02T13:24:28.698Z,100394.63
2022-09-02T13:27:12.188Z,100398.66
2022-09-02T13:30:05.730Z,100377.94
2022-09-02T13:32:35.653Z,100390.09
2022-09-02T13:35:18.344Z,100371.59
2022-09-02T13:38:01.368Z,100377.97
2022-09-02T13:40:36.083Z,100380.78
2022-09-02T13:43:14.169Z,100389.22
2022-09-02T13:45:44.435Z,100380.84
2022-09-02T13:48:24.394Z,100390.22
2022-09-02T13:50:59.058Z,100386.31
2022-09-02T13:53:49.203Z,100375.63
2022-09-02T13:56:28.183Z,100393.53
2022-09-02T13:59:00.106Z,100377.03
2022-09-02T14:01:30.490Z,100391.53
2022-09-02T14:06:41.280Z,100382.50
2022-09-02T14:09:21.293Z,100378.31
2022-09-02T14:11:51.274Z,100378.50
2022-09-02T14:14:23.543Z,100383.34
2022-09-02T14:16:53.474Z,100380.34
2022-09-02T14:19:22.173Z,100398.59
2022-09-02T14:21:56.802Z,100370.06
2022-09-02T14:24:31.270Z,100404.59
2022-09-02T14:27:01.501Z,100393.69
2022-09-02T14:29:34.614Z,100397.25
2022-09-02T14:32:22.712Z,100390.78
2022-09-02T14:35:09.937Z,100379.00
2022-09-02T14:37:56.958Z,100384.50
2022-09-02T14:40:46.063Z,100397.16
2022-09-02T14:43:18.225Z,100391.75
2022-09-02T14:45:50.174Z,100392.91
2022-09-02T14:48:25.882Z,100396.91
2022-09-02T14:51:07.231Z,100384.22
2022-09-02T14:53:40.925Z,100370.72
2022-09-02T14:56:09.928Z,100400.06
2022-09-02T14:58:38.736Z,100415.50
2022-09-02T15:01:09.123Z,100398.84
2022-09-02T15:03:42.206Z,100394.03
2022-09-02T15:06:15.336Z,100407.94
2022-09-02T15:08:44.612Z,100411.31
2022-09-02T15:11:17.485Z,100398.31
2022-09-02T15:13:46.186Z,100394.94
2022-09-02T15:16:15.913Z,100426.22
2022-09-02T15:18:44.657Z,100412.09
2022-09-02T15:21:13.690Z,100405.31
2022-09-02T15:23:42.623Z,100413.50
2022-09-02T15:26:11.594Z,100413.06
2022-09-02T15:28:40.269Z,100372.91
2022-09-02T15:31:09.765Z,100416.19
2022-09-02T15:33:39.078Z,100399.91
2022-09-02T15:36:13.663Z,100392.13
2022-09-02T15:38:42.180Z,100360.00
2022-09-02T15:41:25.564Z,100382.88
2022-09-02T15:43:56.394Z,100380.47
2022-09-02T15:46:28.246Z,100369.41
2022-09-02T15:49:02.835Z,100362.19
2022-09-02T15:51:32.468Z,100369.66
2022-09-02T15:54:07.337Z,100367.69
2022-09-02T15:56:38.585Z,100381.84
2022-09-02T15:59:16.549Z,100387.38
2022-09-02T16:01:48.415Z,100393.16
2022-09-02T16:04:17.774Z,100383.81
2022-09-02T16:06:52.900Z,100376.44
2022-09-02T16:09:21.676Z,100380.13
2022-09-02T16:11:53.012Z,100379.31
2022-09-02T16:14:22.869Z,100370.66
2022-09-02T16:16:55.189Z,100370.06
2022-09-02T16:19:27.599Z,100371.63
2022-09-02T16:21:58.445Z,100387.22
2022-09-02T16:24:27.318Z,100371.78
2022-09-02T16:26:56.284Z,100364.56
2022-09-02T16:29:28.160Z,100358.50
2022-09-02T16:32:14.546Z,100356.13
2022-09-02T16:34:47.506Z,100351.31
2022-09-02T16:37:16.446Z,100340.84
2022-09-02T16:39:45.137Z,100369.28
2022-09-02T16:42:13.903Z,100357.97
2022-09-02T16:44:42.706Z,100354.72
2022-09-02T16:47:12.863Z,100340.19
2022-09-02T16:49:42.711Z,100344.16
2022-09-02T16:52:12.012Z,100329.75
2022-09-02T16:54:41.357Z,100302.34
2022-09-02T16:57:10.271Z,100354.38
2022-09-02T16:59:38.799Z,100349.16
2022-09-02T17:02:08.112Z,100312.81
2022-09-02T17:04:36.974Z,100302.19
2022-09-02T17:07:05.456Z,100318.47
2022-09-02T17:09:34.064Z,100317.75
2022-09-02T17:12:02.923Z,100339.53
2022-09-02T17:14:31.568Z,100342.38
2022-09-02T17:17:00.335Z,100330.75
2022-09-02T17:19:32.508Z,100329.06
2022-09-02T17:22:01.289Z,100350.41
2022-09-02T17:24:31.335Z,100339.53
2022-09-02T17:27:00.999Z,100311.09
2022-09-02T17:29:48.589Z,100330.06
2022-09-02T17:32:21.246Z,100326.53
2022-09-02T17:34:51.750Z,100317.63
2022-09-02T17:37:22.989Z,100329.63
2022-09-02T17:39:51.874Z,100296.13
2022-09-02T17:42:22.316Z,100322.84
2022-09-02T17:44:51.018Z,100319.00
2022-09-02T17:47:22.478Z,100324.53
2022-09-02T17:49:53.256Z,100308.28
2022-09-02T17:52:26.416Z,100269.81
2022-09-02T17:54:55.360Z,100308.69
2022-09-02T17:57:48.258Z,100319.72
2022-09-02T18:00:21.756Z,100295.41
2022-09-02T18:03:22.434Z,100304.91
2022-09-02T18:06:32.578Z,100304.47
2022-09-02T18:09:03.689Z,100290.59
2022-09-02T18:11:32.629Z,100290.75
2022-09-02T18:14:07.038Z,100305.91
2022-09-02T18:17:00.262Z,100314.06
2022-09-02T18:19:40.617Z,100307.44
2022-09-02T18:22:35.954Z,100308.56
2022-09-02T18:25:37.096Z,100286.78
2022-09-02T18:28:26.309Z,100307.28
2022-09-02T18:31:07.127Z,100305.88
2022-09-02T18:33:55.656Z,100307.00
2022-09-02T18:36:39.742Z,100282.09
2022-09-02T18:39:47.457Z,100256.81
2022-09-02T18:42:53.436Z,100303.75
2022-09-02T18:45:26.420Z,100288.34
2022-09-02T18:48:16.747Z,100305.88
2022-09-02T18:50:57.674Z,100279.56
2022-09-02T18:53:34.682Z,100240.28
2022-09-02T18:56:11.476Z,100272.34
2022-09-02T18:58:43.020Z,100289.59
2022-09-02T19:01:26.272Z,100281.81
2022-09-02T19:03:54.961Z,100271.50
2022-09-02T19:06:25.920Z,100293.09
2022-09-02T19:09:03.520Z,100286.88
2022-09-02T19:11:36.981Z,100285.91
2022-09-02T19:14:29.104Z,100285.19
2022-09-02T19:16:58.880Z,100283.75
2022-09-02T19:19:30.798Z,100281.72
2022-09-02T19:22:22.301Z,100238.72
2022-09-02T19:24:58.809Z,100266.13
2022-09-02T19:27:33.184Z,100257.78
2022-09-02T19:30:11.139Z,100265.56
2022-09-02T19:32:43.062Z,100256.66
2022-09-02T19:35:17.214Z,100258.47
2022-09-02T19:37:51.532Z,100258.03
2022-09-02T19:40:29.105Z,100236.84
2022-09-02T19:42:57.821Z,100240.09
2022-09-02T19:45:29.788Z,100246.16
2022-09-02T19:48:07.077Z,100248.97
2022-09-02T19:50:38.857Z,100235.22
2022-09-02T19:53:08.355Z,100241.84
2022-09-02T19:55:37.166Z,100213.16
2022-09-02T19:58:06.035Z,100208.19
2022-09-02T20:00:35.007Z,100223.00
2022-09-02T20:03:04.176Z,100218.66
2022-09-02T20:05:32.765Z,100174.53
2022-09-02T20:08:01.700Z,100211.81
2022-09-02T20:10:30.776Z,100218.88
2022-09-02T20:13:00.112Z,100228.53
2022-09-02T20:15:29.073Z,100210.53
2022-09-02T20:18:18.797Z,100219.00
2022-09-02T20:20:49.596Z,100214.16
2022-09-02T20:23:20.175Z,100200.56
2022-09-02T20:26:24.154Z,100227.81
2022-09-02T20:29:11.288Z,100197.41
2022-09-02T20:32:05.373Z,100189.78
2022-09-02T20:34:46.295Z,100209.31
2022-09-02T20:37:42.295Z,100206.44
2022-09-02T20:40:17.046Z,100207.47
2022-09-02T20:43:27.735Z,100203.09
2022-09-02T20:46:07.240Z,100199.56
2022-09-02T20:48:56.396Z,100186.28
2022-09-02T20:51:56.285Z,100189.63
2022-09-02T20:54:54.433Z,100193.19
2022-09-02T20:57:26.236Z,100203.09
2022-09-02T21:00:00.703Z,100194.06
2022-09-02T21:02:35.764Z,100192.06
2022-09-02T21:05:28.714Z,100192.53
2022-09-02T21:08:07.535Z,100188.00
2022-09-02T21:10:44.083Z,100191.53
2022-09-02T21:13:39.544Z,100178.28
2022-09-02T21:16:19.923Z,100178.00
2022-09-02T21:19:20.716Z,100177.16
2022-09-02T21:22:11.055Z,100163.56
2022-09-02T21:24:56.696Z,100164.44
2022-09-02T21:27:34.454Z,100153.72
2022-09-02T21:30:11.295Z,100153.72
2022-09-02T21:32:51.214Z,100160.22
2022-09-02T21:35:20.100Z,100166.19
2022-09-02T21:37:54.681Z,100144.81
2022-09-02T21:40:27.994Z,100156.41
2022-09-02T21:43:02.395Z,100163.31
2022-09-02T21:45:56.984Z,100153.41
2022-09-02T21:48:42.947Z,100113.00
2022-09-02T21:51:43.480Z,100100.53
2022-09-02T21:54:34.418Z,100146.22
2022-09-02T21:57:21.178Z,100147.19
2022-09-02T22:00:05.249Z,100140.13
2022-09-02T22:02:59.981Z,100153.69
2022-09-02T22:05:40.906Z,100098.00
2022-09-02T22:08:17.779Z,100143.78
2022-09-02T22:11:11.524Z,100136.16
2022-09-02T22:13:42.632Z,100087.66
2022-09-02T22:16:17.634Z,100142.34
2022-09-02T22:19:01.887Z,100107.91
2022-09-02T22:21:50.058Z,100124.28
2022-09-02T22:24:21.500Z,100123.44
2022-09-02T22:26:55.194Z,100131.94
2022-09-02T22:29:28.243Z,100137.16
2022-09-02T22:32:01.493Z,100135.59
2022-09-02T22:34:36.002Z,100129.63
2022-09-02T22:37:08.920Z,100135.28
2022-09-02T22:39:50.049Z,100125.53
2022-09-02T22:42:28.213Z,100109.78
2022-09-02T22:45:39.970Z,100131.41
2022-09-02T22:48:41.491Z,100090.81
2022-09-02T22:51:37.257Z,100115.16
2022-09-02T22:54:06.046Z,100096.19
2022-09-02T22:56:49.187Z,100120.66
2022-09-02T22:59:38.943Z,100122.47
2022-09-02T23:02:09.676Z,100122.75
2022-09-02T23:04:57.375Z,100106.69
2022-09-02T23:07:26.092Z,100106.09
2022-09-02T23:09:59.119Z,100100.16
2022-09-02T23:12:40.081Z,100096.28
2022-09-02T23:15:30.784Z,100109.94
2022-09-02T23:18:06.518Z,100105.44
2022-09-02T23:20:53.695Z,100106.81
2022-09-02T23:23:38.464Z,100097.34
2022-09-02T23:26:34.658Z,100094.91
2022-09-02T23:29:34.867Z,100093.88
2022-09-02T23:32:24.190Z,100101.06
2022-09-02T23:35:21.019Z,100081.41
2022-09-02T23:38:20.217Z,100092.56
2022-09-02T23:40:59.836Z,100071.31
2022-09-02T23:43:28.905Z,100079.19
2022-09-02T23:46:02.890Z,100073.41
2022-09-02T23:48:52.939Z,100086.53
2022-09-02T23:51:42.613Z,100070.41
2022-09-02T23:54:25.185Z,100057.53
2022-09-02T23:57:24.186Z,100079.72
2022-09-02T23:59:52.980Z,100069.44
